createdAt,value
2018-09-27T00:03:53.679Z,9.30
2018-09-27T00:08:56.847Z,6.67
2018-09-27T00:13:59.970Z,8.47
2018-09-27T00:19:03.117Z,7.30
2018-09-27T00:24:06.315Z,7.70
2018-09-27T00:29:09.435Z,7.73
2018-09-27T00:34:12.615Z,5.43
2018-09-27T00:39:15.732Z,5.73
2018-09-27T00:44:18.879Z,5.97
2018-09-27T00:49:21.998Z,3.20
2018-09-27T00:54:25.146Z,10.07
2018-09-27T00:59:28.366Z,6.80
2018-09-27T01:04:31.490Z,5.77
2018-09-27T01:09:34.600Z,5.73
2018-09-27T01:14:37.740Z,6.47
2018-09-27T01:19:40.842Z,5.67
2018-09-27T01:24:44.012Z,6.43
2018-09-27T01:29:47.119Z,5.87
2018-09-27T01:34:50.235Z,6.10
2018-09-27T01:39:53.549Z,8.08
2018-09-27T01:44:56.793Z,4.97
2018-09-27T01:49:59.985Z,7.70
2018-09-27T01:55:03.103Z,4.90
2018-09-27T02:00:06.256Z,4.57
2018-09-27T02:05:09.371Z,5.53
2018-09-27T02:10:12.561Z,5.25
2018-09-27T02:15:15.694Z,7.25
2018-09-27T02:20:18.867Z,5.57
2018-09-27T02:25:22.067Z,6.60
2018-09-27T02:30:25.186Z,6.17
2018-09-27T02:35:28.274Z,4.97
2018-09-27T02:40:31.395Z,7.77
2018-09-27T02:45:34.526Z,7.20
2018-09-27T02:50:37.661Z,6.60
2018-09-27T02:55:40.786Z,13.67
2018-09-27T03:00:43.958Z,8.70
2018-09-27T03:05:47.069Z,7.33
2018-09-27T03:10:50.186Z,4.20
2018-09-27T03:15:53.313Z,9.00
2018-09-27T03:20:56.514Z,2.63
2018-09-27T03:25:59.611Z,5.60
2018-09-27T03:31:02.721Z,9.87
2018-09-27T03:36:05.864Z,3.47
2018-09-27T03:41:08.965Z,5.20
2018-09-27T03:46:12.133Z,5.43
2018-09-27T03:51:15.256Z,5.57
2018-09-27T03:56:18.401Z,5.73
2018-09-27T04:01:21.587Z,5.90
2018-09-27T04:06:24.699Z,5.90
2018-09-27T04:11:27.898Z,7.37
2018-09-27T04:16:30.995Z,4.47
2018-09-27T04:21:34.174Z,6.83
2018-09-27T04:26:37.307Z,7.40
2018-09-27T04:31:40.483Z,6.10
2018-09-27T04:36:43.623Z,8.37
2018-09-27T04:41:46.786Z,7.43
2018-09-27T04:46:49.959Z,6.07
2018-09-27T04:51:53.151Z,9.47
2018-09-27T04:56:56.222Z,6.83
2018-09-27T05:01:59.410Z,5.20
2018-09-27T05:07:02.470Z,7.97
2018-09-27T05:12:05.637Z,5.33
2018-09-27T05:17:08.830Z,9.88
2018-09-27T05:22:11.971Z,5.73
2018-09-27T05:27:15.084Z,6.07
2018-09-27T05:32:18.167Z,6.17
2018-09-27T05:37:21.286Z,9.43
2018-09-27T05:42:24.471Z,7.30
2018-09-27T05:47:27.598Z,6.28
2018-09-27T05:52:30.715Z,5.80
2018-09-27T05:57:33.919Z,6.62
2018-09-27T06:02:37.026Z,5.40
2018-09-27T06:07:40.155Z,8.03
2018-09-27T06:12:43.362Z,8.70
2018-09-27T06:17:46.508Z,11.90
2018-09-27T06:22:49.627Z,8.60
2018-09-27T06:27:52.722Z,8.07
2018-09-27T06:32:55.847Z,6.90
2018-09-27T06:37:58.948Z,9.73
2018-09-27T06:43:02.110Z,15.93
2018-09-27T06:48:05.265Z,11.70
2018-09-27T06:53:08.619Z,9.27
2018-09-27T06:58:11.742Z,14.20
2018-09-27T07:03:14.881Z,10.60
2018-09-27T07:08:18.050Z,12.37
2018-09-27T07:13:21.207Z,16.93
2018-09-27T07:18:24.356Z,10.77
2018-09-27T07:23:27.502Z,8.10
2018-09-27T07:28:30.599Z,9.83
2018-09-27T07:33:33.769Z,11.25
2018-09-27T07:38:36.967Z,12.68
2018-09-27T07:43:40.148Z,8.65
2018-09-27T07:48:43.248Z,7.05
2018-09-27T07:53:46.400Z,9.43
2018-09-27T07:58:49.547Z,9.78
2018-09-27T08:03:52.738Z,10.28
2018-09-27T08:08:55.931Z,11.97
2018-09-27T08:13:59.041Z,13.15
2018-09-27T08:19:02.208Z,10.30
2018-09-27T08:24:05.376Z,11.27
2018-09-27T08:29:08.558Z,13.27
2018-09-27T08:34:11.637Z,10.47
2018-09-27T08:39:14.829Z,12.37
2018-09-27T08:44:17.958Z,13.77
2018-09-27T08:49:21.085Z,12.43
2018-09-27T08:54:24.191Z,16.27
2018-09-27T08:59:27.387Z,13.97
2018-09-27T09:04:30.505Z,16.73
2018-09-27T09:09:33.660Z,18.10
2018-09-27T09:14:36.752Z,13.77
2018-09-27T09:19:39.921Z,15.10
2018-09-27T09:24:43.093Z,11.83
2018-09-27T09:29:46.147Z,18.60
2018-09-27T09:34:49.251Z,13.63
2018-09-27T09:39:52.396Z,11.93
2018-09-27T09:44:55.549Z,13.53
2018-09-27T09:49:58.796Z,14.13
2018-09-27T09:55:01.866Z,13.50
2018-09-27T10:00:05.059Z,10.70
2018-09-27T10:05:08.217Z,11.60
2018-09-27T10:10:11.394Z,14.18
2018-09-27T10:15:14.541Z,11.25
2018-09-27T10:20:17.669Z,13.62
2018-09-27T10:25:20.854Z,13.68
2018-09-27T10:30:23.994Z,11.10
2018-09-27T10:35:27.157Z,11.68
2018-09-27T10:40:30.302Z,11.05
2018-09-27T10:45:33.496Z,10.95
2018-09-27T10:50:36.639Z,10.68
2018-09-27T10:55:39.730Z,12.28
2018-09-27T11:00:42.857Z,13.18
2018-09-27T11:05:46.004Z,14.00
2018-09-27T11:10:49.146Z,12.18
2018-09-27T11:15:52.273Z,13.35
2018-09-27T11:20:55.419Z,13.32
2018-09-27T11:25:58.580Z,10.53
2018-09-27T11:31:19.462Z,15.68
2018-09-27T11:36:22.713Z,12.88
2018-09-27T11:41:25.786Z,14.45
2018-09-27T11:46:28.990Z,11.88
2018-09-27T11:51:32.111Z,14.68
2018-09-27T11:56:35.285Z,14.05
2018-09-27T12:01:38.530Z,12.35
2018-09-27T12:06:41.610Z,15.75
2018-09-27T12:11:44.693Z,12.50
2018-09-27T12:16:47.861Z,10.68
2018-09-27T12:21:51.146Z,10.40
2018-09-27T12:26:54.325Z,11.50
2018-09-27T12:31:57.498Z,12.25
2018-09-27T12:37:00.619Z,10.48
2018-09-27T12:42:03.934Z,6.40
2018-09-27T12:47:06.931Z,8.33
2018-09-27T12:52:10.279Z,11.97
2018-09-27T12:57:13.213Z,8.83
2018-09-27T13:02:16.401Z,8.35
2018-09-27T13:07:19.393Z,7.65
2018-09-27T13:12:22.578Z,7.00
2018-09-27T13:17:25.737Z,10.08
2018-09-27T13:22:28.811Z,10.45
2018-09-27T13:27:31.946Z,10.05
2018-09-27T13:32:35.221Z,9.15
2018-09-27T13:37:38.415Z,9.03
2018-09-27T13:42:41.568Z,8.95
2018-09-27T13:47:44.712Z,9.48
2018-09-27T13:52:47.839Z,14.07
2018-09-27T13:57:50.987Z,12.78
2018-09-27T14:02:54.152Z,6.53
2018-09-27T14:07:57.259Z,10.25
2018-09-27T14:13:00.391Z,8.50
2018-09-27T14:18:03.512Z,7.22
2018-09-27T14:23:06.686Z,6.25
2018-09-27T14:28:09.765Z,8.25
2018-09-27T14:33:12.896Z,7.72
2018-09-27T14:38:16.063Z,4.83
2018-09-27T14:43:19.238Z,9.28
2018-09-27T14:48:22.369Z,7.22
2018-09-27T14:53:26.452Z,8.18
2018-09-27T14:58:29.663Z,7.72
2018-09-27T15:03:32.714Z,6.95
2018-09-27T15:08:35.836Z,5.70
2018-09-27T15:13:39.012Z,7.33
2018-09-27T15:18:42.198Z,8.10
2018-09-27T15:23:45.305Z,10.40
2018-09-27T15:28:48.469Z,7.10
2018-09-27T15:33:51.658Z,8.80
2018-09-27T15:38:54.731Z,3.50
2018-09-27T15:43:57.907Z,5.45
2018-09-27T15:49:01.029Z,7.35
2018-09-27T15:54:04.209Z,10.72
2018-09-27T15:59:07.405Z,7.60
2018-09-27T16:04:10.566Z,5.67
2018-09-27T16:09:13.610Z,6.05
2018-09-27T16:14:16.734Z,4.90
2018-09-27T16:19:19.983Z,5.42
2018-09-27T16:24:23.051Z,8.18
2018-09-27T16:29:26.267Z,3.20
2018-09-27T16:34:29.479Z,4.55
2018-09-27T16:39:32.561Z,5.35
2018-09-27T16:44:35.674Z,10.70
2018-09-27T16:49:38.778Z,5.85
2018-09-27T16:54:42.003Z,7.60
2018-09-27T16:59:45.185Z,5.70
2018-09-27T17:04:48.281Z,6.40
2018-09-27T17:09:51.487Z,7.00
2018-09-27T17:14:54.613Z,6.13
2018-09-27T17:19:57.737Z,7.00
2018-09-27T17:25:00.895Z,14.40
2018-09-27T17:30:04.227Z,8.98
2018-09-27T17:35:07.489Z,9.63
2018-09-27T17:40:10.567Z,7.47
2018-09-27T17:45:13.708Z,7.33
2018-09-27T17:50:16.877Z,9.17
2018-09-27T17:55:20.025Z,6.53
2018-09-27T18:00:25.441Z,6.87
2018-09-27T18:05:29.144Z,8.33
2018-09-27T18:10:32.218Z,7.33
2018-09-27T18:15:35.309Z,10.10
2018-09-27T18:20:38.455Z,5.23
2018-09-27T18:25:41.770Z,8.60
2018-09-27T18:30:44.928Z,5.77
2018-09-27T18:35:48.059Z,5.63
2018-09-27T18:40:51.219Z,5.70
2018-09-27T18:45:54.347Z,6.77
2018-09-27T18:50:57.472Z,8.53
2018-09-27T18:56:00.618Z,7.73
2018-09-27T19:01:03.722Z,6.73
2018-09-27T19:06:06.889Z,10.03
2018-09-27T19:11:10.067Z,9.57
2018-09-27T19:16:13.255Z,8.63
2018-09-27T19:21:16.397Z,9.37
2018-09-27T19:26:19.624Z,9.87
2018-09-27T19:31:22.806Z,7.10
2018-09-27T19:36:26.077Z,7.53
2018-09-27T19:41:29.351Z,5.40
2018-09-27T19:46:32.561Z,6.23
2018-09-27T19:51:35.697Z,7.90
2018-09-27T19:56:38.844Z,6.73
2018-09-27T20:01:42.049Z,10.23
2018-09-27T20:06:45.227Z,5.97
2018-09-27T20:11:48.353Z,10.67
2018-09-27T20:16:51.521Z,6.90
2018-09-27T20:21:54.694Z,8.43
2018-09-27T20:26:57.844Z,9.37
2018-09-27T20:32:01.008Z,8.07
2018-09-27T20:37:04.398Z,8.73
2018-09-27T20:42:07.517Z,8.67
2018-09-27T20:47:10.825Z,10.80
2018-09-27T20:52:13.975Z,11.17
2018-09-27T20:57:17.109Z,11.07
2018-09-27T21:02:20.297Z,6.07
2018-09-27T21:07:23.473Z,8.03
2018-09-27T21:12:26.672Z,7.30
2018-09-27T21:17:29.855Z,9.07
2018-09-27T21:22:32.974Z,8.37
2018-09-27T21:27:36.143Z,6.67
2018-09-27T21:32:39.288Z,7.87
2018-09-27T21:37:42.447Z,8.17
2018-09-27T21:42:45.593Z,7.20
2018-09-27T21:47:48.763Z,12.47
2018-09-27T21:52:51.900Z,7.73
2018-09-27T21:57:55.099Z,8.17
2018-09-27T22:02:58.222Z,7.67
2018-09-27T22:08:01.392Z,10.43
2018-09-27T22:13:04.602Z,6.93
2018-09-27T22:18:07.805Z,8.63
2018-09-27T22:23:10.920Z,7.03
2018-09-27T22:28:14.042Z,4.67
2018-09-27T22:33:17.188Z,6.13
2018-09-27T22:38:20.351Z,7.73
2018-09-27T22:43:23.496Z,7.00
2018-09-27T22:48:26.630Z,7.53
2018-09-27T22:53:29.783Z,8.80
2018-09-27T22:58:32.944Z,5.47
2018-09-27T23:03:36.118Z,9.50
2018-09-27T23:08:39.284Z,9.87
2018-09-27T23:13:42.443Z,7.43
2018-09-27T23:18:45.605Z,6.23
2018-09-27T23:23:48.796Z,5.23
2018-09-27T23:28:51.968Z,7.33
2018-09-27T23:33:55.092Z,7.87
2018-09-27T23:38:58.235Z,6.37
2018-09-27T23:44:01.450Z,3.13
2018-09-27T23:49:04.607Z,4.97
2018-09-27T23:54:07.776Z,4.73
2018-09-27T23:59:10.956Z,5.73
